CheckWX is a tool to help pilots better visualize weather data.  It is not intended as a substitute for an official pre-flight weather briefing.

21:03:41 UTC

KLHX METAR
La Junta Municipal Airport
La Junta, Colorado, USA
Current

11 mins ago

KLHX 232053Z AUTO 33010KT 10SM CLR 02/M07 A2990 RMK AO2 SLP127 T00171067 53005
Observed
Feb-23 @ 20:53 UTC
Wind
  • 330° at 10 KTS
Visibility
10 SM
Flight Rules
VFR
Cloud Levels
  • Clear skies
Temperature
C / 36°F
Dewpoint
-7°C / 19°F
Humidity
52%
Altimeter
29.9" Hg
Pressure
1012.7 hPa
Previous

1 hour ago

KLHX 231953Z AUTO 03012KT 10SM CLR 01/M09 A2987 RMK AO2 SLP115 T00111089
Observed
Feb-23 @ 19:53 UTC
Wind
  • 030° at 12 KTS
Visibility
10 SM
Flight Rules
VFR
Cloud Levels
  • Clear skies
Temperature
C / 34°F
Dewpoint
-9°C / 16°F
Humidity
48%
Altimeter
29.87" Hg
Pressure
1011.5 hPa
Previous

2 hours ago

KLHX 231853Z AUTO 31006KT 10SM CLR M01/M07 A2988 RMK AO2 SLP125 T10061067
Observed
Feb-23 @ 18:53 UTC
Wind
  • 310° at 6 KTS
Visibility
10 SM
Flight Rules
VFR
Cloud Levels
  • Clear skies
Temperature
-1°C / 30°F
Dewpoint
-7°C / 19°F
Humidity
64%
Altimeter
29.88" Hg
Pressure
1012.5 hPa